This is the latest recevied weather packets stored in our database for station/object DJ2DS-13. If no packets are shown the sender has not sent any weather packets the latest 1 day(s).
| Time | Temp. | Humidity | Pressure | Rain* | Wind** | Luminosity | Snow |
|---|---|---|---|---|---|---|---|
| 1777997165 | 11.11° C | 82% | 1009.7 hPa | 0 mm | 1.34 m/s, 11° | 120 W/m² | - |
| 1777996865 | 11.11° C | 82% | 1009.8 hPa | 0 mm | 0.89 m/s, 13° | 116 W/m² | - |
| 1777996562 | 11.11° C | 81% | 1009.8 hPa | 0 mm | 0.89 m/s, 0° | 125 W/m² | - |
| 1777996262 | 11.11° C | 81% | 1009.7 hPa | 0 mm | 1.34 m/s, 11° | 146 W/m² | - |
| 1777995960 | 11.11° C | 82% | 1009.8 hPa | 0 mm | 1.34 m/s, 27° | 165 W/m² | - |
| 1777995662 | 11.11° C | 82% | 1009.7 hPa | 0 mm | 1.34 m/s, 0° | 183 W/m² | - |
| 1777995363 | 11.67° C | 81% | 1009.7 hPa | 0 mm | 0.89 m/s, 25° | 215 W/m² | - |
| 1777995062 | 11.67° C | 82% | 1009.8 hPa | 0 mm | 0.89 m/s, 21° | 204 W/m² | - |
| 1777994761 | 11.67° C | 81% | 1009.9 hPa | 0 mm | 1.79 m/s, 0° | 202 W/m² | - |
| 1777994457 | 11.67° C | 80% | 1009.9 hPa | 0 mm | 0.89 m/s, 17° | 223 W/m² | - |
| 1777994153 | 11.67° C | 80% | 1009.9 hPa | 0 mm | 1.34 m/s, 18° | 241 W/m² | - |
| 1777993852 | 11.67° C | 80% | 1010 hPa | 0 mm | 0.89 m/s, 313° | 230 W/m² | - |
| 1777993563 | 11.67° C | 81% | 1009.9 hPa | 0 mm | 0.89 m/s, 13° | 220 W/m² | - |
| 1777993250 | 11.67° C | 81% | 1010 hPa | 0 mm | 0.89 m/s, 0° | 237 W/m² | - |
| 1777992951 | 11.67° C | 81% | 1010.1 hPa | 0 mm | 0.89 m/s, 31° | 241 W/m² | - |
| 1777992651 | 11.67° C | 81% | 1010.1 hPa | 0 mm | 0.89 m/s, 7° | 220 W/m² | - |
| 1777992351 | 11.67° C | 80% | 1010.2 hPa | 0 mm | 1.34 m/s, 20° | 211 W/m² | - |
| 1777992050 | 11.67° C | 81% | 1010.1 hPa | 0 mm | 1.34 m/s, 35° | 218 W/m² | - |
| 1777991751 | 11.67° C | 80% | 1010.2 hPa | 0 mm | 1.34 m/s, 24° | 208 W/m² | - |
| 1777991450 | 11.67° C | 80% | 1010.1 hPa | 0 mm | 0.89 m/s, 20° | 267 W/m² | - |
| 1777991150 | 11.67° C | 79% | 1010.1 hPa | 0 mm | 1.79 m/s, 0° | 223 W/m² | - |
| 1777990857 | 12.22° C | 79% | 1010.1 hPa | 0 mm | 0.89 m/s, 17° | 294 W/m² | - |
| 1777990555 | 12.22° C | 78% | 1010.1 hPa | 0 mm | 1.79 m/s, 34° | 262 W/m² | - |
| 1777990253 | 12.22° C | 78% | 1010.1 hPa | 0 mm | 1.34 m/s, 1° | 331 W/m² | - |
| 1777989951 | 12.22° C | 79% | 1010.1 hPa | 0 mm | 1.34 m/s, 0° | 427 W/m² | - |
* Rain latest hour (hover to see other rain measurements)
** Current wind speed in m/s (hover to see current wind gust speed)